METAR AND TAF INFORMATION
METAR FOR LFBG
ADDS - METARS form results

(0441 UTC 03 February 2023)
Data provider http://aviationweather.gov/metar/data/
 
METAR text: LFBG 030430Z AUTO 08001KT 8000 BKN035 M00/M01 Q1036
Conditions at: LFBG (COGNAC/CHATEAUBE, FR) observed 0430 UTC 03 February 2023
Temperature: 0.0°C (32°F)
Dewpoint: -1.0°C (30°F) [RH = 93%]
Pressure (altimeter): 30.59 inches Hg (1036.0 mb)
Winds: from the E (80 degrees) at 1 MPH (1 knots; 0.5 m/s)
Visibility: 5 miles ( 8 km)
Ceiling: 3500 feet AGL
Clouds: broken clouds at 3500 feet AGL
Weather: no significant weather observed at this time

METAR text: LFBG 030400Z AUTO 00000KT 8000 NSC M00/M01 Q1036
Conditions at: LFBG (COGNAC/CHATEAUBE, FR) observed 0400 UTC 03 February 2023
Temperature: 0.0°C (32°F)
Dewpoint: -1.0°C (30°F) [RH = 93%]
Pressure (altimeter): 30.59 inches Hg (1036.0 mb)
Winds: calm
Visibility: 5 miles ( 8 km)
Ceiling: at least 12,000 feet AGL
Clouds: sky clear below 12,000 feet AGL
Weather: no significant weather observed at this time

Forecast for: LFBG (COGNAC/CHATEAUBE, FR)
Text: TAF LFBG 022000Z 0221/0321 VRB02KT CAVOK
Forecast period: 2100 UTC 02 February 2023 to 1100 UTC 03 February 2023
Forecast type: FROM: standard forecast or significant change
Winds: variable direction winds at 2 MPH (2 knots; 1.0 m/s)
Visibility: 6 or more miles (10+ km)
Ceiling: unknown
Clouds: missing
Weather: NSW  (no significant weather)
Text: PROB40 0306/0308 0500 FG
Forecast period: 0600 to 0800 UTC 03 February 2023
Forecast type: PROBABLE: 40 percent likelihood of the following during this time
Visibility: 0.31 miles (0.50 km)
Ceiling: unknown
Clouds: missing
Weather: FG  (fog)
Text: BECMG 0311/0313 04010KT
Forecast period: 1100 to 2100 UTC 03 February 2023
Forecast type: BECOMING: Conditions expected to become as follows by 1300 UTC 03 February 2023
Winds: from the NE (40 degrees) at 12 MPH (10 knots; 5.1 m/s)
Visibility: 6 or more miles (10+ km)
Ceiling: unknown
Clouds: missing
Weather: NSW  (no significant weather)

 AIRPORT MAP

 RUNWAY INFORMATION
Runway 05 Runway length 7949 ft Runway width 148 ft
Runway elevation 77 ft Runway displaced threshold 454 ft Runway heading 50
Runway 23 Runway length 7949 ft Runway width 148 ft
Runway elevation 101 ft Runway displaced threshold 459 ft Runway heading 230
Runway 09 Runway length 6152 ft Runway width 197 ft
Runway elevation 87 ft Runway displaced threshold 282 ft Runway heading 84
Runway 27 Runway length 6152 ft Runway width 197 ft
Runway elevation 96 ft Runway displaced threshold 367 ft Runway heading 264

 AIRPORT FREQUENCIES
Type APP Name COGNAC APP Frequency 29.372 MHZ
Type APP Name COGNAC APP Frequency 122.55 MHZ
Type OPS Name COGNAC OPS Frequency 139.925 MHZ
Type TWR Name COGNAC TWR Frequency 120.075 MHZ

 AIRPORT NEAR NAVIGATION AIDS
Type TACAN Name Cognac Frequency 116200 KHZ
Type NDB Name Cognac Frequency 354 KHZ
Type VOR-DME Name Cognac Frequency 114650 KHZ



Powered by Virtual Airlines Manager [v2.6.2]